Time;durP1;ratioP1;P1;durP2;ratioP2;P2;SDS_P1;SDS_P2;PMS_P1;PMS_P2;Temp;Humidity;BMP_temperature;BMP_pressure;BME280_temperature;BME280_humidity;BME280_pressure;Samples;Min_cycle;Max_cycle;Signal;HPM_P1;HPM_P2
2022/08/07 00:00:27;;;;;;;16.85;12.02;;;;;;;24.17;66.24;99746.25;5078737;28;20029;-60
2022/08/07 00:02:55;;;;;;;17.15;12.68;;;;;;;24.17;66.45;99756.84;5063177;28;20318;-60
2022/08/07 00:05:22;;;;;;;16.27;12.82;;;;;;;24.14;66.75;99763.22;5043559;28;20017;-60
2022/08/07 00:07:48;;;;;;;18.95;12.23;;;;;;;24.15;66.70;99759.59;5043900;28;20021;-61
2022/08/07 00:10:14;;;;;;;14.65;12.05;;;;;;;24.17;66.68;99760.34;5066314;28;20036;-60
2022/08/07 00:12:40;;;;;;;16.10;11.73;;;;;;;24.16;66.57;99755.16;5080721;28;20024;-61
2022/08/07 00:15:06;;;;;;;19.63;12.32;;;;;;;24.17;65.92;99763.00;5060372;28;20059;-61
2022/08/07 00:17:32;;;;;;;16.25;11.57;;;;;;;24.12;66.39;99743.97;5056479;28;20029;-61
2022/08/07 00:19:57;;;;;;;13.40;11.15;;;;;;;24.17;65.90;99752.41;5063609;28;20033;-61
2022/08/07 00:22:23;;;;;;;15.52;11.05;;;;;;;24.13;66.64;99740.38;5063281;28;20032;-61
2022/08/07 00:24:48;;;;;;;14.40;11.25;;;;;;;24.15;67.08;99745.53;5063229;28;20207;-61
2022/08/07 00:27:14;;;;;;;19.58;12.43;;;;;;;24.11;66.97;99751.09;5063064;28;20029;-61
2022/08/07 00:29:40;;;;;;;15.18;12.48;;;;;;;24.06;66.61;99747.09;5062540;28;20069;-61
2022/08/07 00:32:05;;;;;;;17.52;12.68;;;;;;;24.03;66.51;99750.81;5062757;28;20032;-61
2022/08/07 00:34:31;;;;;;;17.20;12.82;;;;;;;23.93;67.32;99749.84;5063411;28;20017;-61
2022/08/07 00:36:57;;;;;;;20.00;12.63;;;;;;;23.95;67.05;99743.44;5063358;28;20047;-61
2022/08/07 00:39:23;;;;;;;17.48;12.45;;;;;;;23.94;67.18;99741.78;5048077;28;20325;-61
2022/08/07 00:41:54;;;;;;;15.95;12.98;;;;;;;23.83;67.78;99736.44;5043578;28;20032;-61
2022/08/07 00:44:20;;;;;;;16.60;13.07;;;;;;;23.87;67.46;99737.94;5025791;28;20048;-61
2022/08/07 00:46:46;;;;;;;18.13;12.77;;;;;;;23.89;67.39;99740.47;5041855;28;20238;-61
2022/08/07 00:49:12;;;;;;;15.50;12.88;;;;;;;23.91;67.42;99738.53;5054015;28;20025;-61
2022/08/07 00:51:38;;;;;;;17.48;13.57;;;;;;;23.81;67.76;99738.34;5068127;28;20044;-61
2022/08/07 00:54:04;;;;;;;17.88;14.00;;;;;;;23.82;67.85;99737.41;5081841;28;20032;-61
2022/08/07 00:56:30;;;;;;;16.55;13.57;;;;;;;23.83;68.04;99748.81;5063480;28;20217;-61
2022/08/07 00:58:57;;;;;;;17.20;14.13;;;;;;;23.79;67.90;99745.56;5059895;28;20311;-61
2022/08/07 01:01:22;;;;;;;20.15;14.80;;;;;;;23.79;68.22;99745.56;5059590;28;20027;-61
2022/08/07 01:03:50;;;;;;;17.55;14.73;;;;;;;23.73;68.34;99738.94;5063752;28;20017;-62
2022/08/07 01:06:16;;;;;;;16.75;14.18;;;;;;;23.76;68.54;99751.09;5046137;28;20093;-60
2022/08/07 01:08:43;;;;;;;21.38;14.73;;;;;;;23.75;68.38;99752.03;5043170;28;20048;-60
2022/08/07 01:11:09;;;;;;;17.13;14.68;;;;;;;23.73;68.46;99746.03;5043029;28;20025;-60
2022/08/07 01:13:35;;;;;;;18.88;16.65;;;;;;;23.61;68.28;99740.72;5043032;28;20033;-60
2022/08/07 01:16:02;;;;;;;21.30;15.50;;;;;;;23.72;67.90;99736.41;5063274;28;20247;-60
2022/08/07 01:18:28;;;;;;;21.70;17.45;;;;;;;23.73;67.62;99748.69;5066853;28;20029;-59
2022/08/07 01:21:14;;;;;;;22.30;15.63;;;;;;;23.75;68.05;99744.94;5066890;28;20048;-61
2022/08/07 01:23:42;;;;;;;22.10;15.82;;;;;;;23.77;67.70;99744.81;5065923;28;20088;-61
2022/08/07 01:26:09;;;;;;;17.80;15.85;;;;;;;23.68;68.10;99734.97;5085037;28;20058;-61
2022/08/07 01:28:36;;;;;;;22.40;16.17;;;;;;;23.75;68.10;99744.94;5059292;28;20075;-59
2022/08/07 01:31:03;;;;;;;21.27;17.00;;;;;;;23.75;67.72;99752.03;5051404;28;20032;-61
2022/08/07 01:33:29;;;;;;;21.58;15.75;;;;;;;23.73;67.76;99746.88;5051496;28;20066;-60
2022/08/07 01:35:57;;;;;;;22.65;15.63;;;;;;;23.71;68.52;99746.13;5065904;28;20067;-61
2022/08/07 01:38:23;;;;;;;19.80;15.45;;;;;;;23.71;68.23;99751.41;5046740;28;20045;-60
2022/08/07 01:40:51;;;;;;;17.92;15.23;;;;;;;23.40;68.25;99697.34;5062338;28;20025;-61
2022/08/07 01:43:17;;;;;;;19.83;15.88;;;;;;;23.63;68.72;99750.31;5055288;28;20039;-61
2022/08/07 01:45:43;;;;;;;18.67;14.52;;;;;;;23.63;68.51;99739.75;5052957;28;20024;-60
2022/08/07 01:48:09;;;;;;;19.58;15.48;;;;;;;23.60;68.66;99746.09;5066131;28;20083;-60
2022/08/07 01:50:37;;;;;;;20.25;15.50;;;;;;;23.32;69.07;99697.13;5066254;28;20021;-60
2022/08/07 01:53:04;;;;;;;20.60;15.52;;;;;;;23.61;68.84;99747.78;5066075;28;20053;-60
2022/08/07 01:55:46;;;;;;;20.45;15.00;;;;;;;23.30;69.02;99699.00;5066173;28;20025;-61
2022/08/07 01:58:14;;;;;;;16.88;14.73;;;;;;;23.43;69.44;99757.94;5056022;28;20034;-61
2022/08/07 02:00:41;;;;;;;17.02;14.68;;;;;;;23.43;69.10;99736.81;5051937;28;20040;-61
2022/08/07 02:03:12;;;;;;;17.75;13.82;;;;;;;23.21;69.26;99692.63;5067353;28;20256;-61
2022/08/07 02:05:43;;;;;;;16.20;13.88;;;;;;;23.48;69.22;99739.09;5086317;28;20024;-61
2022/08/07 02:08:12;;;;;;;18.93;14.27;;;;;;;23.19;69.40;99697.19;5050171;28;20085;-61
2022/08/07 02:10:40;;;;;;;18.98;14.55;;;;;;;23.39;69.28;99754.69;5045935;28;20439;-61
2022/08/07 02:13:28;;;;;;;17.55;14.60;;;;;;;23.29;69.42;99721.97;5046017;28;20038;-61
2022/08/07 02:15:57;;;;;;;18.05;14.15;;;;;;;23.19;69.41;99698.00;5048939;28;20033;-61
2022/08/07 02:18:27;;;;;;;20.83;14.13;;;;;;;23.36;69.97;99727.63;5045772;28;20025;-61
2022/08/07 02:20:55;;;;;;;16.60;14.55;;;;;;;23.15;69.99;99693.91;5045904;28;20088;-61
2022/08/07 02:23:22;;;;;;;15.75;13.52;;;;;;;23.34;69.72;99726.91;5084998;28;20032;-60
2022/08/07 02:25:49;;;;;;;17.52;13.50;;;;;;;23.35;69.89;99729.44;5055563;28;20314;-61
2022/08/07 02:28:16;;;;;;;16.95;13.65;;;;;;;23.32;69.67;99734.13;5044916;28;20032;-61
2022/08/07 02:30:43;;;;;;;15.07;12.98;;;;;;;23.30;69.84;99723.66;5045445;28;20033;-61
2022/08/07 02:33:11;;;;;;;18.08;13.25;;;;;;;23.32;70.03;99728.81;5045632;28;20025;-61
2022/08/07 02:35:38;;;;;;;14.15;12.73;;;;;;;23.02;70.60;99675.44;5045539;28;20021;-61
2022/08/07 02:38:06;;;;;;;17.02;13.32;;;;;;;23.34;70.11;99726.91;5045041;28;20045;-61
2022/08/07 02:40:33;;;;;;;18.45;13.27;;;;;;;23.33;69.92;99722.56;5071051;28;20031;-61
2022/08/07 02:42:59;;;;;;;15.32;12.95;;;;;;;23.26;70.46;99717.75;5077359;28;20380;-61
2022/08/07 02:45:27;;;;;;;17.10;13.00;;;;;;;23.27;70.26;99715.94;5060433;28;20166;-61
2022/08/07 02:47:53;;;;;;;16.10;12.30;;;;;;;23.34;69.16;99716.31;5045292;28;20025;-62
2022/08/07 02:50:19;;;;;;;18.70;12.20;;;;;;;23.39;68.87;99727.41;5044016;28;20083;-61
2022/08/07 02:53:05;;;;;;;15.65;12.57;;;;;;;23.15;69.14;99682.50;5053363;28;20029;-61
2022/08/07 02:55:34;;;;;;;21.05;13.43;;;;;;;23.45;69.10;99726.94;5063752;28;20131;-61
2022/08/07 02:58:09;;;;;;;18.08;12.93;;;;;;;23.49;68.87;99730.22;5046043;28;20230;-61
2022/08/07 03:00:37;;;;;;;21.63;13.18;;;;;;;23.46;69.26;99731.28;5044922;28;20021;-61
2022/08/07 03:03:06;;;;;;;20.65;12.95;;;;;;;23.39;69.00;99722.13;5045266;28;20056;-61
2022/08/07 03:05:35;;;;;;;16.45;12.15;;;;;;;23.49;69.46;99728.41;5064761;28;20048;-61
2022/08/07 03:08:02;;;;;;;17.55;12.25;;;;;;;23.53;69.19;99737.81;5048381;28;20030;-61
2022/08/07 03:10:28;;;;;;;16.90;12.13;;;;;;;23.51;69.57;99729.13;5050616;28;20025;-61
2022/08/07 03:12:54;;;;;;;18.13;11.98;;;;;;;23.58;68.93;99733.00;5057642;28;20040;-61
2022/08/07 03:15:21;;;;;;;16.33;11.35;;;;;;;23.63;68.55;99731.81;5044813;28;20112;-61
2022/08/07 03:17:47;;;;;;;19.45;12.00;;;;;;;23.71;68.34;99740.00;5059499;28;20321;-61
2022/08/07 03:20:13;;;;;;;17.95;11.93;;;;;;;23.68;68.10;99741.06;5064802;28;20020;-61
2022/08/07 03:22:42;;;;;;;21.90;12.05;;;;;;;23.38;67.60;99692.19;5064492;28;20025;-61
2022/08/07 03:25:08;;;;;;;14.93;11.43;;;;;;;23.68;67.29;99740.25;5064649;28;20332;-61
2022/08/07 03:27:34;;;;;;;18.88;11.90;;;;;;;23.69;67.03;99734.00;5068773;28;20035;-61
2022/08/07 03:30:00;;;;;;;14.23;10.88;;;;;;;23.59;66.64;99729.41;5084754;28;20024;-61
2022/08/07 03:32:32;;;;;;;16.70;11.23;;;;;;;23.66;67.04;99734.22;5064573;28;20101;-61
2022/08/07 03:35:01;;;;;;;12.55;10.57;;;;;;;23.66;66.32;99713.06;5048526;28;20032;-62
2022/08/07 03:37:31;;;;;;;14.50;10.73;;;;;;;23.56;66.69;99689.97;5056037;28;20068;-61
2022/08/07 03:39:58;;;;;;;16.08;10.32;;;;;;;23.92;66.34;99733.09;5070718;28;20024;-61
2022/08/07 03:42:24;;;;;;;16.17;10.68;;;;;;;23.93;66.08;99729.50;5084219;28;20041;-61
2022/08/07 03:44:51;;;;;;;11.93;9.63;;;;;;;23.97;65.55;99731.91;5077860;28;20025;-61
2022/08/07 03:47:17;;;;;;;12.65;10.38;;;;;;;23.90;65.74;99740.34;5043912;28;20065;-61
2022/08/07 03:49:43;;;;;;;11.98;9.98;;;;;;;24.02;65.26;99727.97;5042843;28;20041;-62
2022/08/07 03:52:10;;;;;;;14.57;9.50;;;;;;;24.12;65.24;99733.38;5043952;28;20029;-61
2022/08/07 03:54:36;;;;;;;15.98;10.00;;;;;;;24.14;65.47;99726.16;5049516;28;20055;-61
2022/08/07 03:57:04;;;;;;;15.27;10.65;;;;;;;23.90;65.70;99707.72;5064112;28;20305;-61
2022/08/07 03:59:31;;;;;;;10.70;9.00;;;;;;;24.20;65.40;99731.00;5043935;28;20017;-61
2022/08/07 04:01:57;;;;;;;13.63;9.80;;;;;;;24.23;65.39;99730.75;5043757;28;20336;-62
2022/08/07 04:04:23;;;;;;;14.30;9.70;;;;;;;24.33;64.96;99727.38;5043841;28;20022;-62
2022/08/07 04:06:50;;;;;;;16.63;10.10;;;;;;;24.42;65.12;99724.00;5044481;28;20028;-61
2022/08/07 04:09:16;;;;;;;12.70;9.48;;;;;;;24.33;65.17;99724.72;5043855;28;20053;-61
2022/08/07 04:11:46;;;;;;;12.43;9.60;;;;;;;24.36;65.22;99730.63;5059399;28;20369;-61
2022/08/07 04:14:12;;;;;;;15.23;9.82;;;;;;;24.33;64.53;99738.81;5043802;28;20049;-61
2022/08/07 04:16:38;;;;;;;12.00;9.32;;;;;;;24.16;65.16;99728.69;5049105;28;20028;-61
2022/08/07 04:19:06;;;;;;;12.90;9.25;;;;;;;24.05;65.38;99722.44;5063329;28;20024;-61
2022/08/07 04:21:31;;;;;;;11.02;9.00;;;;;;;24.28;64.71;99733.91;5062529;28;20029;-61
2022/08/07 04:23:57;;;;;;;11.13;8.70;;;;;;;24.31;64.50;99727.50;5063667;28;20086;-61
2022/08/07 04:26:23;;;;;;;13.38;9.07;;;;;;;24.32;64.39;99731.00;5063545;28;20139;-61
2022/08/07 04:28:49;;;;;;;15.68;9.30;;;;;;;24.31;64.44;99738.09;5063425;28;20335;-62
2022/08/07 04:31:15;;;;;;;12.50;9.27;;;;;;;24.29;64.08;99732.06;5063429;28;20036;-61
2022/08/07 04:33:41;;;;;;;14.50;9.43;;;;;;;24.47;64.23;99740.38;5063382;28;20028;-62
2022/08/07 04:36:07;;;;;;;11.43;9.63;;;;;;;24.52;63.90;99735.56;5063555;28;20045;-61
2022/08/07 04:38:35;;;;;;;10.25;9.15;;;;;;;24.42;64.04;99734.59;5062186;28;20341;-61
2022/08/07 04:41:01;;;;;;;14.48;10.13;;;;;;;24.59;63.75;99736.75;5079188;28;20096;-61
2022/08/07 04:43:31;;;;;;;11.00;8.07;;;;;;;24.69;63.76;99738.72;5072237;28;20025;-61
2022/08/07 04:46:05;;;;;;;13.32;9.18;;;;;;;24.84;63.11;99733.97;5069222;28;20024;-61
2022/08/07 04:48:58;;;;;;;10.70;8.75;;;;;;;24.84;62.94;99740.13;5083349;28;20043;-61
2022/08/07 04:52:01;;;;;;;13.57;9.07;;;;;;;24.63;62.88;99706.44;5083053;28;20021;-61
2022/08/07 04:54:35;;;;;;;12.40;8.90;;;;;;;24.75;62.76;99698.47;5078954;28;20029;-61
2022/08/07 04:57:28;;;;;;;12.85;8.25;;;;;;;25.37;62.41;99736.75;5063231;28;20037;-61
2022/08/07 05:00:07;;;;;;;13.60;8.27;;;;;;;25.67;60.30;99741.31;5043441;28;20021;-61
2022/08/07 05:03:14;;;;;;;13.07;7.97;;;;;;;26.13;58.81;99746.38;5063876;28;20028;-61
2022/08/07 05:05:48;;;;;;;10.20;8.00;;;;;;;26.46;58.65;99755.03;5046866;28;20039;-61
2022/08/07 05:08:22;;;;;;;11.80;8.23;;;;;;;26.89;57.09;99734.50;5077794;28;20024;-62
2022/08/07 05:10:56;;;;;;;14.73;8.18;;;;;;;27.12;56.41;99708.50;5067226;28;20028;-62
2022/08/07 05:13:35;;;;;;;11.02;8.40;;;;;;;27.59;54.99;99699.84;5052413;28;20037;-61
2022/08/07 05:16:06;;;;;;;16.20;8.57;;;;;;;28.05;54.74;99741.66;5043414;28;20022;-61
2022/08/07 05:18:35;;;;;;;15.70;7.90;;;;;;;27.29;54.24;99693.66;5062948;28;20029;-62
2022/08/07 05:21:03;;;;;;;12.70;8.13;;;;;;;27.57;55.42;99705.31;5061761;28;20025;-62
2022/08/07 05:23:39;;;;;;;9.00;7.22;;;;;;;27.53;56.19;99703.91;5062777;28;20021;-61
2022/08/07 05:26:11;;;;;;;13.15;7.20;;;;;;;27.47;54.41;99693.84;5067510;28;20048;-61
2022/08/07 05:28:38;;;;;;;10.65;7.65;;;;;;;27.54;55.22;99738.34;5050672;28;20030;-61
2022/08/07 05:31:05;;;;;;;12.55;7.88;;;;;;;27.51;55.07;99733.31;5042433;28;20367;-61
2022/08/07 05:33:34;;;;;;;13.93;7.45;;;;;;;27.59;54.33;99740.56;5059789;28;20056;-61
2022/08/07 05:36:01;;;;;;;10.18;7.45;;;;;;;27.19;55.27;99741.53;5058410;28;20033;-61
2022/08/07 05:38:28;;;;;;;11.90;7.80;;;;;;;27.16;56.20;99731.19;5061911;28;20120;-61
2022/08/07 05:40:55;;;;;;;12.10;7.68;;;;;;;27.34;55.97;99734.84;5062827;28;20067;-61
2022/08/07 05:43:21;;;;;;;11.65;7.05;;;;;;;27.35;56.44;99735.72;5051970;28;20025;-61
2022/08/07 05:45:48;;;;;;;13.70;7.82;;;;;;;27.47;55.90;99742.56;5042112;28;20021;-61
2022/08/07 05:48:14;;;;;;;9.18;7.05;;;;;;;27.66;55.62;99733.72;5043665;28;20021;-61
2022/08/07 05:50:40;;;;;;;12.68;7.40;;;;;;;27.60;54.93;99725.47;5082663;28;20205;-61
2022/08/07 05:53:06;;;;;;;8.43;6.22;;;;;;;27.65;54.86;99742.69;5064566;28;20021;-61
2022/08/07 05:55:34;;;;;;;18.05;7.70;;;;;;;27.42;54.68;99706.72;5062542;28;20032;-61
2022/08/07 05:58:01;;;;;;;11.60;7.90;;;;;;;27.49;53.38;99731.78;5062307;28;20097;-61
2022/08/07 06:00:30;;;;;;;9.88;7.53;;;;;;;27.50;54.05;99738.78;5061443;28;20029;-61
2022/08/07 06:02:57;;;;;;;10.93;7.25;;;;;;;27.41;53.94;99707.69;5064867;28;20216;-61
2022/08/07 06:05:27;;;;;;;9.90;6.70;;;;;;;27.52;53.33;99704.88;5046779;28;20213;-61
2022/08/07 06:07:55;;;;;;;18.08;7.07;;;;;;;27.85;53.79;99746.16;5046408;28;20056;-61
2022/08/07 06:10:21;;;;;;;15.57;7.25;;;;;;;27.93;53.19;99745.44;5045932;28;20025;-61
2022/08/07 06:12:47;;;;;;;15.27;7.18;;;;;;;27.69;53.28;99751.22;5055758;28;20028;-61
2022/08/07 06:15:14;;;;;;;10.80;7.18;;;;;;;27.66;52.64;99749.69;5085353;28;20032;-61
2022/08/07 06:17:42;;;;;;;12.27;7.18;;;;;;;27.80;53.17;99736.91;5060017;28;20029;-61
2022/08/07 06:20:09;;;;;;;13.15;6.43;;;;;;;27.83;52.78;99744.63;5082112;28;20105;-61
2022/08/07 06:22:36;;;;;;;10.02;7.50;;;;;;;27.99;53.20;99741.38;5063072;28;20044;-61
2022/08/07 06:25:03;;;;;;;13.35;6.57;;;;;;;27.94;52.36;99747.13;5045627;28;20025;-61
2022/08/07 06:27:29;;;;;;;10.98;6.45;;;;;;;28.06;52.28;99734.50;5044622;28;20334;-60
2022/08/07 06:29:55;;;;;;;13.18;6.90;;;;;;;28.09;52.06;99744.03;5045749;28;20033;-60
2022/08/07 06:32:20;;;;;;;15.20;7.22;;;;;;;28.08;51.78;99751.19;5045468;28;20025;-61
2022/08/07 06:34:46;;;;;;;13.00;6.95;;;;;;;28.18;51.78;99751.16;5058394;28;20098;-61
2022/08/07 06:37:11;;;;;;;10.48;6.57;;;;;;;28.01;52.36;99750.91;5065335;28;20049;-61
2022/08/07 06:39:37;;;;;;;11.05;6.72;;;;;;;27.97;52.13;99751.31;5068497;28;20033;-61
2022/08/07 06:42:07;;;;;;;10.30;6.30;;;;;;;27.81;52.49;99717.31;5085368;28;20031;-61
2022/08/07 06:44:34;;;;;;;14.27;6.95;;;;;;;28.11;52.78;99755.38;5078744;28;20021;-61
2022/08/07 06:47:01;;;;;;;8.65;6.45;;;;;;;28.02;52.05;99751.75;5078736;28;20070;-61
2022/08/07 06:49:27;;;;;;;12.27;6.28;;;;;;;28.11;52.31;99752.72;5067143;28;20024;-60
2022/08/07 06:51:55;;;;;;;12.68;6.82;;;;;;;28.07;52.81;99715.72;5064742;28;20197;-60
2022/08/07 06:54:24;;;;;;;9.02;5.88;;;;;;;28.37;51.09;99763.56;5065181;28;20049;-60
2022/08/07 06:56:50;;;;;;;10.38;6.70;;;;;;;28.40;50.92;99749.94;5063824;28;20044;-60
2022/08/07 06:59:24;;;;;;;12.68;6.45;;;;;;;28.53;51.09;99741.59;5064954;28;20455;-60
2022/08/07 07:01:52;;;;;;;10.25;6.63;;;;;;;28.66;51.80;99752.81;5051828;28;20037;-60
2022/08/07 07:04:18;;;;;;;14.27;6.95;;;;;;;28.73;51.91;99753.91;5044832;28;20073;-60
2022/08/07 07:06:44;;;;;;;14.63;6.90;;;;;;;28.73;50.82;99750.38;5050744;28;20045;-60
2022/08/07 07:09:21;;;;;;;10.68;6.10;;;;;;;28.65;50.16;99756.47;5045041;28;20072;-60
2022/08/07 07:12:05;;;;;;;11.02;6.50;;;;;;;28.72;50.83;99751.38;5044962;28;20033;-61
2022/08/07 07:14:52;;;;;;;16.40;6.70;;;;;;;28.70;51.74;99751.53;5044654;28;20310;-61
2022/08/07 07:17:38;;;;;;;12.80;6.32;;;;;;;28.70;50.46;99748.88;5054703;28;20029;-62
2022/08/07 07:20:12;;;;;;;11.38;6.38;;;;;;;28.62;51.74;99742.56;5064790;28;20102;-61
2022/08/07 07:22:38;;;;;;;11.55;6.65;;;;;;;28.71;51.65;99765.69;5064598;28;20028;-61
2022/08/07 07:25:06;;;;;;;20.65;6.32;;;;;;;28.44;50.96;99735.34;5064636;28;20024;-61
2022/08/07 07:27:35;;;;;;;13.93;5.95;;;;;;;28.55;51.16;99779.63;5064590;28;20027;-61
2022/08/07 07:30:03;;;;;;;15.27;6.45;;;;;;;28.71;51.47;99773.69;5063747;28;20075;-61
2022/08/07 07:32:33;;;;;;;11.75;6.22;;;;;;;28.72;51.94;99773.53;5064677;28;20040;-61
2022/08/07 07:35:01;;;;;;;13.35;5.88;;;;;;;28.35;51.88;99734.41;5063481;28;20088;-60
2022/08/07 07:37:29;;;;;;;14.07;6.20;;;;;;;28.42;52.28;99732.81;5053597;28;20085;-60
2022/08/07 07:40:00;;;;;;;16.77;6.65;;;;;;;28.59;52.09;99768.50;5042996;28;20028;-60
2022/08/07 07:42:26;;;;;;;15.45;4.55;;;;;;;28.48;49.74;99755.38;5044220;28;20301;-61
2022/08/07 07:44:54;;;;;;;10.15;5.70;;;;;;;28.53;49.59;99766.44;5044255;28;20092;-60
2022/08/07 07:47:21;;;;;;;8.95;4.60;;;;;;;28.40;48.29;99753.47;5043907;28;20033;-60
2022/08/07 07:49:48;;;;;;;6.40;4.07;;;;;;;28.41;45.13;99747.13;5073451;28;20051;-61
2022/08/07 07:52:17;;;;;;;5.55;3.60;;;;;;;28.70;46.98;99748.88;5071136;28;20092;-61
2022/08/07 07:54:46;;;;;;;9.90;3.50;;;;;;;28.73;44.35;99756.56;5064008;28;20040;-61
2022/08/07 07:57:13;;;;;;;5.78;3.30;;;;;;;28.73;45.78;99705.06;5063830;28;20021;-61
2022/08/07 07:59:41;;;;;;;6.13;4.10;;;;;;;29.09;46.30;99742.44;5044265;28;20093;-60
2022/08/07 08:02:10;;;;;;;7.18;3.35;;;;;;;29.15;43.93;99749.00;5074037;28;20201;-60
2022/08/07 08:04:36;;;;;;;7.78;3.28;;;;;;;29.24;44.44;99734.78;5084087;28;20032;-61
2022/08/07 08:07:03;;;;;;;4.03;3.30;;;;;;;29.33;42.60;99733.88;5071851;28;20036;-62
2022/08/07 08:09:30;;;;;;;8.48;3.15;;;;;;;29.35;43.99;99731.88;5046861;28;20029;-61
2022/08/07 08:11:58;;;;;;;7.32;3.53;;;;;;;29.39;44.74;99709.22;5065866;28;20039;-61
2022/08/07 08:14:24;;;;;;;9.88;4.13;;;;;;;29.65;45.21;99737.78;5051525;28;20225;-61
2022/08/07 08:16:51;;;;;;;7.13;4.30;;;;;;;29.54;43.83;99706.00;5057985;28;20033;-61
2022/08/07 08:19:26;;;;;;;4.05;2.97;;;;;;;29.82;43.89;99737.91;5063839;28;20108;-61
2022/08/07 08:27:30;;;;;;;6.40;3.80;;;;;;;29.83;43.69;99696.84;5043576;28;20104;-61
2022/08/07 08:30:13;;;;;;;4.53;3.53;;;;;;;29.91;43.71;99687.06;5050860;28;20024;-62
2022/08/07 08:33:01;;;;;;;7.32;3.95;;;;;;;30.17;44.42;99728.97;5044372;28;20481;-62
2022/08/07 08:35:28;;;;;;;6.70;4.20;;;;;;;30.20;44.16;99722.47;5043486;28;20048;-61
2022/08/07 08:38:00;;;;;;;10.50;4.20;;;;;;;30.16;44.40;99731.78;5068303;28;20281;-62
2022/08/07 08:40:34;;;;;;;9.43;4.03;;;;;;;30.27;44.16;99742.19;5061781;28;20035;-62
2022/08/07 08:43:15;;;;;;;8.57;4.05;;;;;;;30.21;43.91;99727.63;5072128;28;20096;-62
2022/08/07 08:45:45;;;;;;;7.13;3.80;;;;;;;30.08;43.45;99725.41;5042857;28;20033;-61
2022/08/07 08:48:24;;;;;;;11.73;4.72;;;;;;;30.22;44.44;99702.59;5051903;28;20313;-61
2022/08/07 08:51:06;;;;;;;5.25;3.78;;;;;;;30.17;44.95;99694.25;5063186;28;20044;-60
2022/08/07 08:53:49;;;;;;;13.75;4.97;;;;;;;30.07;45.63;99682.81;5063277;28;20032;-60
2022/08/07 08:56:22;;;;;;;8.95;4.47;;;;;;;30.23;45.57;99735.50;5047154;28;20021;-61
2022/08/07 08:59:13;;;;;;;6.10;4.50;;;;;;;30.09;45.51;99727.09;5042923;28;20061;-62
2022/08/07 09:02:15;;;;;;;6.45;4.30;;;;;;;30.15;46.27;99728.28;5064578;28;20408;-61
2022/08/07 09:05:05;;;;;;;11.07;4.40;;;;;;;30.18;46.22;99737.81;5061053;28;20056;-61
2022/08/07 09:07:49;;;;;;;7.80;5.13;;;;;;;30.08;45.58;99737.94;5054816;28;20245;-62
2022/08/07 09:10:24;;;;;;;7.47;4.80;;;;;;;30.22;46.21;99731.16;5058009;28;20052;-61
2022/08/07 09:13:17;;;;;;;8.57;5.05;;;;;;;30.27;46.25;99734.19;5059024;28;20337;-63
2022/08/07 09:15:58;;;;;;;7.85;5.13;;;;;;;30.18;46.37;99729.81;5047788;28;20326;-61
2022/08/07 09:19:00;;;;;;;9.02;5.22;;;;;;;29.86;45.41;99736.63;5043040;28;20088;-60
2022/08/07 09:21:42;;;;;;;8.88;5.47;;;;;;;29.71;46.50;99689.09;5043006;28;20068;-62
2022/08/07 09:24:30;;;;;;;9.73;4.90;;;;;;;29.87;46.85;99711.59;5058480;28;20201;-61
2022/08/07 09:27:02;;;;;;;9.20;5.25;;;;;;;29.82;46.27;99720.06;5042926;28;20040;-60
2022/08/07 09:29:37;;;;;;;8.55;5.90;;;;;;;29.97;46.64;99709.66;5060037;28;20048;-60
2022/08/07 09:32:31;;;;;;;7.72;5.22;;;;;;;30.03;46.79;99711.69;5062643;28;20026;-60
2022/08/07 09:35:13;;;;;;;9.30;5.43;;;;;;;30.18;46.67;99700.41;5070110;28;20079;-60
2022/08/07 09:37:49;;;;;;;10.07;5.35;;;;;;;30.08;45.74;99655.13;5063697;28;20048;-61
2022/08/07 09:40:23;;;;;;;13.13;5.78;;;;;;;30.44;46.00;99673.66;5061068;28;20248;-61
2022/08/07 09:42:59;;;;;;;8.07;5.10;;;;;;;30.57;45.27;99673.19;5082994;28;20037;-61
2022/08/07 09:45:43;;;;;;;10.57;5.28;;;;;;;30.64;45.26;99679.56;5062907;28;20021;-61
2022/08/07 09:48:27;;;;;;;8.20;4.82;;;;;;;30.78;45.70;99660.22;5046434;28;20159;-61
2022/08/07 09:51:11;;;;;;;11.88;5.45;;;;;;;30.77;45.72;99652.34;5046517;28;20194;-61
2022/08/07 09:53:43;;;;;;;8.43;4.95;;;;;;;30.81;46.54;99642.97;5059796;28;20075;-62
2022/08/07 09:57:05;;;;;;;9.20;6.78;;;;;;;30.93;45.94;99657.72;5063297;28;20293;-62
2022/08/07 10:00:12;;;;;;;8.88;5.68;;;;;;;30.93;45.66;99656.91;5064503;28;20366;-60
2022/08/07 10:02:47;;;;;;;8.88;4.72;;;;;;;30.75;44.71;99659.69;5062813;28;20305;-60
2022/08/07 10:05:29;;;;;;;10.05;4.43;;;;;;;30.62;43.02;99661.00;5065566;28;20044;-61
2022/08/07 10:08:06;;;;;;;9.52;5.00;;;;;;;30.59;44.67;99649.81;5061471;28;20017;-61
2022/08/07 10:10:31;;;;;;;10.55;4.93;;;;;;;30.55;44.44;99645.78;5065486;28;20021;-62
2022/08/07 10:13:24;;;;;;;9.93;5.10;;;;;;;30.51;45.03;99652.47;5064355;28;20262;-61
2022/08/07 10:16:44;;;;;;;7.30;4.40;;;;;;;30.17;44.52;99616.78;5063790;28;20090;-61
2022/08/07 10:19:36;;;;;;;8.15;4.80;;;;;;;30.29;45.03;99663.56;5039504;28;20030;-62
2022/08/07 10:22:01;;;;;;;7.90;4.75;;;;;;;30.20;44.85;99666.34;5063315;28;20029;-62
2022/08/07 10:24:44;;;;;;;8.93;4.55;;;;;;;30.17;45.03;99683.56;5064703;28;20217;-61
2022/08/07 10:27:30;;;;;;;6.28;4.95;;;;;;;29.85;45.53;99678.88;5060613;28;20033;-61
2022/08/07 10:30:08;;;;;;;9.98;5.18;;;;;;;29.82;45.53;99685.34;5060185;28;20021;-61
2022/08/07 10:32:52;;;;;;;12.25;5.03;;;;;;;29.64;46.58;99692.56;5065369;28;20076;-61
2022/08/07 10:35:35;;;;;;;9.18;5.13;;;;;;;28.93;46.73;99647.09;5062488;28;20032;-63
2022/08/07 10:38:29;;;;;;;12.98;5.20;;;;;;;28.65;48.40;99683.66;5063851;28;20096;-63
2022/08/07 10:41:15;;;;;;;8.63;4.32;;;;;;;27.89;50.51;99643.72;5088019;28;20029;-62
2022/08/07 10:44:11;;;;;;;7.85;4.72;;;;;;;27.90;51.12;99681.81;5062141;28;20051;-62
2022/08/07 10:47:05;;;;;;;6.32;4.82;;;;;;;27.66;51.42;99629.94;5054260;28;20068;-62
2022/08/07 10:49:39;;;;;;;8.13;4.57;;;;;;;27.75;51.26;99624.72;5063929;28;20032;-61
2022/08/07 10:52:11;;;;;;;8.45;4.90;;;;;;;28.20;51.31;99671.94;5060261;28;20340;-61
2022/08/07 10:54:42;;;;;;;9.45;4.82;;;;;;;28.40;51.31;99652.22;5064281;28;20040;-61
2022/08/07 10:57:25;;;;;;;9.75;4.97;;;;;;;28.46;50.36;99661.44;5063474;28;20036;-61
2022/08/07 11:00:08;;;;;;;7.40;4.55;;;;;;;28.86;50.87;99656.69;5084878;28;20028;-61
2022/08/07 11:02:54;;;;;;;7.50;4.72;;;;;;;28.71;49.50;99597.75;5084889;28;20237;-61
2022/08/07 11:05:44;;;;;;;15.98;5.60;;;;;;;29.19;48.30;99638.34;5068234;28;20028;-62
2022/08/07 11:08:38;;;;;;;8.13;4.60;;;;;;;29.30;47.87;99635.44;5064834;28;20301;-61
2022/08/07 11:11:13;;;;;;;8.30;4.30;;;;;;;29.19;47.12;99630.34;5078018;28;20032;-62
2022/08/07 11:13:48;;;;;;;7.15;4.82;;;;;;;29.51;46.61;99627.06;5066068;28;20111;-62
2022/08/07 11:16:21;;;;;;;7.05;4.75;;;;;;;29.45;45.99;99585.00;5062222;28;20089;-61
2022/08/07 11:19:04;;;;;;;7.75;5.38;;;;;;;29.90;46.91;99636.50;5058965;28;20037;-61
2022/08/07 11:21:53;;;;;;;8.07;4.82;;;;;;;30.08;46.34;99625.72;5061587;28;20379;-62
2022/08/07 11:24:50;;;;;;;5.40;4.40;;;;;;;30.14;44.71;99619.75;5059105;28;20040;-62
2022/08/07 11:27:24;;;;;;;5.75;4.30;;;;;;;30.20;45.02;99632.47;5061609;28;20033;-62
2022/08/07 11:29:58;;;;;;;6.43;5.10;;;;;;;30.17;43.08;99614.09;5060919;28;20044;-62
2022/08/07 11:32:34;;;;;;;4.85;4.40;;;;;;;30.18;43.78;99622.94;5064568;28;20127;-62
2022/08/07 11:35:08;;;;;;;6.80;4.35;;;;;;;30.27;44.01;99613.94;5061409;28;20355;-63
2022/08/07 11:38:11;;;;;;;6.65;4.18;;;;;;;30.41;44.10;99613.34;5060924;28;20028;-61
2022/08/07 11:40:56;;;;;;;7.10;4.78;;;;;;;30.28;44.95;99581.69;5059100;28;20028;-61
2022/08/07 11:43:25;;;;;;;15.95;10.82;;;;;;;30.40;43.20;99606.31;5064132;28;20107;-60
2022/08/07 11:46:08;;;;;;;7.63;5.93;;;;;;;30.52;43.20;99608.69;5064607;28;20092;-61
2022/08/07 11:48:53;;;;;;;11.05;5.00;;;;;;;30.57;43.85;99636.63;5082935;28;20032;-61
2022/08/07 11:51:21;;;;;;;8.50;4.45;;;;;;;30.43;42.84;99663.97;5047704;28;20294;-61
2022/08/07 11:54:28;;;;;;;10.07;6.63;;;;;;;29.77;52.99;99690.31;5056907;28;20041;-63